TimeCEST,TemperatureF,Dew PointF,Humidity,Sea Level PressureIn,VisibilityMPH,Wind Direction,Wind SpeedMPH,Gust SpeedMPH,PrecipitationIn,Events,Conditions,WindDirDegrees,DateUTC
12:50 AM,68.0,62.6,83,30.09,6.2,West,4.6,-,N/A,,Partly Cloudy,270,2012-10-03 22:50:00
1:50 AM,68.0,59.0,73,30.09,6.2,West,6.9,-,N/A,,Partly Cloudy,260,2012-10-03 23:50:00
2:50 AM,59.0,51.8,77,30.09,6.2,West,3.5,-,N/A,,Partly Cloudy,270,2012-10-04 00:50:00
3:50 AM,59.0,51.8,77,30.09,6.2,Variable,2.3,-,N/A,,Partly Cloudy,0,2012-10-04 01:50:00
4:50 AM,57.2,51.8,82,30.09,6.2,East,3.5,-,N/A,,Partly Cloudy,100,2012-10-04 02:50:00
5:50 AM,55.4,50.0,82,30.09,6.2,Variable,2.3,-,N/A,,Partly Cloudy,0,2012-10-04 03:50:00
6:50 AM,55.4,51.8,88,30.09,6.2,ESE,4.6,-,N/A,,Scattered Clouds,110,2012-10-04 04:50:00
7:50 AM,59.0,55.4,88,30.09,6.2,Variable,3.5,-,N/A,,Partly Cloudy,0,2012-10-04 05:50:00
8:50 AM,68.0,60.8,78,30.09,6.2,Calm,Calm,-,N/A,,Partly Cloudy,0,2012-10-04 06:50:00
9:50 AM,73.4,60.8,65,30.09,6.2,West,8.1,-,N/A,,Partly Cloudy,270,2012-10-04 07:50:00
10:50 AM,75.2,60.8,61,30.12,6.2,West,9.2,-,N/A,,Partly Cloudy,270,2012-10-04 08:50:00
11:50 AM,75.2,60.8,61,30.09,6.2,West,12.7,-,N/A,,Partly Cloudy,270,2012-10-04 09:50:00
12:50 PM,75.2,60.8,61,30.09,6.2,West,15.0,-,N/A,,Partly Cloudy,270,2012-10-04 10:50:00
1:50 PM,75.2,60.8,61,30.06,6.2,West,12.7,-,N/A,,Partly Cloudy,270,2012-10-04 11:50:00
2:50 PM,75.2,60.8,61,30.06,6.2,West,15.0,-,N/A,,Partly Cloudy,280,2012-10-04 12:50:00
3:50 PM,75.2,62.6,65,30.06,6.2,WNW,16.1,-,N/A,,Partly Cloudy,290,2012-10-04 13:50:00
4:50 PM,75.2,62.6,65,30.04,6.2,West,17.3,-,N/A,,Partly Cloudy,280,2012-10-04 14:50:00
5:50 PM,71.6,60.8,69,30.04,6.2,West,15.0,-,N/A,,Partly Cloudy,280,2012-10-04 15:50:00
6:50 PM,69.8,60.8,73,30.04,6.2,WNW,12.7,-,N/A,,Partly Cloudy,300,2012-10-04 16:50:00
7:50 PM,69.8,60.8,73,30.06,6.2,WNW,9.2,-,N/A,,Scattered Clouds,290,2012-10-04 17:50:00
8:50 PM,68.0,60.8,78,30.06,6.2,West,9.2,-,N/A,,Scattered Clouds,280,2012-10-04 18:50:00
9:50 PM,68.0,59.0,73,30.06,6.2,West,8.1,-,N/A,,Partly Cloudy,280,2012-10-04 19:50:00
10:50 PM,69.8,60.8,73,30.06,6.2,West,6.9,-,N/A,,Partly Cloudy,270,2012-10-04 20:50:00
11:50 PM,62.6,55.4,77,30.06,6.2,Calm,Calm,-,N/A,,Partly Cloudy,0,2012-10-04 21:50:00